Time;durP1;ratioP1;P1;durP2;ratioP2;P2;SDS_P1;SDS_P2;PMS_P1;PMS_P2;Temp;Humidity;BMP_temperature;BMP_pressure;BME280_temperature;BME280_humidity;BME280_pressure;Samples;Min_cycle;Max_cycle;Signal;HPM_P1;HPM_P2
2023/07/25 00:00:58;;;;;;;9.67;4.70;;;16.00;99.90;;;;;;5034024;28;20444;-58
2023/07/25 00:03:24;;;;;;;15.23;5.13;;;16.00;99.90;;;;;;5037202;28;20255;-57
2023/07/25 00:05:49;;;;;;;13.57;4.80;;;16.00;99.90;;;;;;5033870;28;20183;-58
2023/07/25 00:08:15;;;;;;;8.57;4.40;;;16.00;99.90;;;;;;5038237;28;20202;-58
2023/07/25 00:10:41;;;;;;;17.07;5.53;;;16.00;99.90;;;;;;5038777;28;20180;-58
2023/07/25 00:13:07;;;;;;;10.50;5.17;;;16.00;99.90;;;;;;5036726;28;21360;-58
2023/07/25 00:15:33;;;;;;;17.30;5.77;;;16.00;99.90;;;;;;5030873;28;20227;-57
2023/07/25 00:17:58;;;;;;;8.17;5.30;;;16.00;99.90;;;;;;5039750;28;20195;-57
2023/07/25 00:20:24;;;;;;;10.13;5.70;;;16.00;99.90;;;;;;5046018;28;20175;-57
2023/07/25 00:22:49;;;;;;;10.30;5.90;;;16.00;99.90;;;;;;5040404;28;20563;-58
2023/07/25 00:25:16;;;;;;;11.13;6.77;;;16.00;99.90;;;;;;5044165;28;20743;-58
2023/07/25 00:27:42;;;;;;;10.33;6.57;;;16.00;99.90;;;;;;5036331;28;20204;-58
2023/07/25 00:30:08;;;;;;;8.50;5.93;;;16.00;99.90;;;;;;5037726;28;20510;-57
2023/07/25 00:32:34;;;;;;;24.90;6.40;;;16.00;99.90;;;;;;5036255;28;20468;-57
2023/07/25 00:35:00;;;;;;;13.73;6.30;;;16.00;99.90;;;;;;5045629;28;20921;-57
2023/07/25 00:37:29;;;;;;;11.97;6.63;;;16.00;99.90;;;;;;5039631;28;20270;-58
2023/07/25 00:39:54;;;;;;;11.07;5.60;;;16.00;99.90;;;;;;5037950;28;20629;-57
2023/07/25 00:42:20;;;;;;;13.80;5.90;;;16.00;99.90;;;;;;5043914;28;20520;-58
2023/07/25 00:44:46;;;;;;;12.90;6.40;;;16.00;99.90;;;;;;5037084;28;20275;-57
2023/07/25 00:47:11;;;;;;;8.10;5.33;;;16.00;99.90;;;;;;5043082;28;20288;-57
2023/07/25 00:49:37;;;;;;;11.20;5.70;;;16.00;99.90;;;;;;5032117;28;20261;-58
2023/07/25 00:52:03;;;;;;;12.97;6.90;;;16.00;99.90;;;;;;5035045;28;20187;-58
2023/07/25 00:54:29;;;;;;;10.50;6.73;;;16.10;99.90;;;;;;5042441;28;20461;-57
2023/07/25 00:56:55;;;;;;;14.40;7.57;;;16.10;99.90;;;;;;5038810;28;20222;-58
2023/07/25 00:59:20;;;;;;;9.90;6.07;;;16.10;99.90;;;;;;5039195;28;20207;-56
2023/07/25 01:01:46;;;;;;;7.67;6.03;;;16.10;99.90;;;;;;5039741;28;20211;-57
2023/07/25 01:04:11;;;;;;;9.03;4.90;;;16.10;99.90;;;;;;5042528;28;20277;-57
2023/07/25 01:06:38;;;;;;;6.90;4.33;;;16.10;99.90;;;;;;5040309;28;20187;-58
2023/07/25 01:09:03;;;;;;;15.67;4.70;;;16.10;99.90;;;;;;5037435;28;20210;-58
2023/07/25 01:11:29;;;;;;;9.20;5.40;;;16.10;99.90;;;;;;5039989;28;20433;-58
2023/07/25 01:13:54;;;;;;;16.57;5.80;;;16.10;99.90;;;;;;5035891;28;20577;-58
2023/07/25 01:16:23;;;;;;;13.50;6.33;;;16.10;99.90;;;;;;5036454;28;20179;-57
2023/07/25 01:18:50;;;;;;;11.10;5.53;;;16.00;99.90;;;;;;5046234;28;20288;-58
2023/07/25 01:21:15;;;;;;;11.60;5.63;;;16.00;99.90;;;;;;5037779;28;20468;-56
2023/07/25 01:23:42;;;;;;;10.00;6.63;;;16.00;99.90;;;;;;5040001;28;20743;-57
2023/07/25 01:26:08;;;;;;;17.13;7.63;;;15.90;99.90;;;;;;5044250;28;20238;-57
2023/07/25 01:28:33;;;;;;;9.47;6.33;;;15.90;99.90;;;;;;5043433;28;20545;-56
2023/07/25 01:30:59;;;;;;;13.60;6.73;;;15.90;99.90;;;;;;5039239;28;20270;-57
2023/07/25 01:33:25;;;;;;;15.47;7.10;;;15.90;99.90;;;;;;5029187;28;20277;-58
2023/07/25 01:35:50;;;;;;;12.13;6.93;;;15.90;99.90;;;;;;5034090;28;20615;-57
2023/07/25 01:38:16;;;;;;;18.70;7.60;;;15.90;99.90;;;;;;5030896;28;20207;-57
2023/07/25 01:40:42;;;;;;;14.87;7.80;;;15.90;99.90;;;;;;5038463;28;20171;-57
2023/07/25 01:43:08;;;;;;;13.27;7.37;;;15.90;99.90;;;;;;5033653;28;20191;-57
2023/07/25 01:45:34;;;;;;;18.13;7.67;;;16.00;99.90;;;;;;5036799;28;20182;-57
2023/07/25 01:48:00;;;;;;;17.50;8.60;;;16.00;99.90;;;;;;5038761;28;20484;-57
2023/07/25 01:50:29;;;;;;;14.60;7.60;;;16.00;99.90;;;;;;5037016;28;20430;-57
2023/07/25 01:52:55;;;;;;;13.83;7.80;;;16.00;99.90;;;;;;5034755;28;20593;-57
2023/07/25 01:55:20;;;;;;;17.03;8.37;;;16.10;99.90;;;;;;5033304;28;20436;-57
2023/07/25 01:57:46;;;;;;;14.03;7.57;;;16.00;99.90;;;;;;5025889;28;20207;-56
2023/07/25 02:00:12;;;;;;;12.40;7.83;;;16.10;99.90;;;;;;5030694;28;20270;-55
2023/07/25 02:02:37;;;;;;;12.50;7.37;;;16.10;99.90;;;;;;5030335;28;20635;-56
2023/07/25 02:05:03;;;;;;;13.90;7.27;;;16.10;99.90;;;;;;5039609;28;20179;-56
2023/07/25 02:07:29;;;;;;;16.77;9.03;;;16.00;99.90;;;;;;5035765;28;20185;-56
2023/07/25 02:09:55;;;;;;;15.73;8.60;;;16.00;99.90;;;;;;5034755;28;20505;-56
2023/07/25 02:12:21;;;;;;;16.67;8.60;;;16.00;99.90;;;;;;5025204;28;20270;-57
2023/07/25 02:14:47;;;;;;;15.33;8.70;;;16.00;99.90;;;;;;5036025;28;20214;-56
2023/07/25 02:17:12;;;;;;;36.17;9.53;;;16.00;99.90;;;;;;5041888;28;21004;-57
2023/07/25 02:19:38;;;;;;;15.20;8.60;;;16.00;99.90;;;;;;5022838;28;20273;-56
2023/07/25 02:22:04;;;;;;;13.37;6.90;;;16.00;99.90;;;;;;5017140;28;20269;-56
2023/07/25 02:24:30;;;;;;;13.70;6.80;;;16.00;99.90;;;;;;5022666;28;20187;-58
2023/07/25 02:26:56;;;;;;;13.40;6.87;;;16.00;99.90;;;;;;5035228;28;20432;-57
2023/07/25 02:29:21;;;;;;;16.93;7.37;;;16.00;99.90;;;;;;5029859;28;20576;-57
2023/07/25 02:31:47;;;;;;;11.70;7.43;;;16.00;99.90;;;;;;5018862;28;20204;-57
2023/07/25 02:34:14;;;;;;;11.47;7.40;;;16.00;99.90;;;;;;5019590;28;20246;-57
2023/07/25 02:36:40;;;;;;;13.10;7.13;;;16.00;99.90;;;;;;5030205;28;20182;-57
2023/07/25 02:39:06;;;;;;;10.27;7.00;;;16.00;99.90;;;;;;5031577;28;20466;-57
2023/07/25 02:41:32;;;;;;;17.17;7.30;;;16.00;99.90;;;;;;5031442;28;20266;-55
2023/07/25 02:43:57;;;;;;;13.03;7.20;;;16.00;99.90;;;;;;5019476;28;20183;-57
2023/07/25 02:46:23;;;;;;;17.93;7.10;;;16.00;99.90;;;;;;5019581;28;20185;-57
2023/07/25 02:48:48;;;;;;;11.60;7.30;;;15.90;99.90;;;;;;5017427;28;20687;-55
2023/07/25 02:51:14;;;;;;;12.87;7.53;;;16.00;99.90;;;;;;5018834;28;20323;-58
2023/07/25 02:53:39;;;;;;;17.77;8.50;;;15.90;99.90;;;;;;5032545;28;20810;-58
2023/07/25 02:56:05;;;;;;;25.97;7.77;;;16.00;99.90;;;;;;5034167;28;20179;-57
2023/07/25 02:58:30;;;;;;;26.87;8.40;;;15.90;99.90;;;;;;5025109;28;20229;-57
2023/07/25 03:00:56;;;;;;;23.93;8.70;;;15.90;99.90;;;;;;5038802;28;20628;-58
2023/07/25 03:03:22;;;;;;;19.50;9.10;;;16.00;99.90;;;;;;5039955;28;20209;-57
2023/07/25 03:05:47;;;;;;;18.60;8.70;;;15.90;99.90;;;;;;5041433;28;20194;-57
2023/07/25 03:08:13;;;;;;;17.57;7.87;;;15.90;99.90;;;;;;5035406;28;20195;-58
2023/07/25 03:10:38;;;;;;;16.03;8.53;;;15.90;99.90;;;;;;5029740;28;20186;-57
2023/07/25 03:13:04;;;;;;;17.23;9.77;;;15.90;99.90;;;;;;5036315;28;20309;-56
2023/07/25 03:15:29;;;;;;;14.13;8.80;;;15.90;99.90;;;;;;5034681;28;20183;-58
2023/07/25 03:17:55;;;;;;;15.07;9.00;;;15.90;99.90;;;;;;5038453;28;20210;-58
2023/07/25 03:20:21;;;;;;;20.37;12.80;;;16.00;99.90;;;;;;5033166;28;20249;-58
2023/07/25 03:22:46;;;;;;;30.43;13.37;;;16.00;99.90;;;;;;5042979;28;20760;-57
2023/07/25 03:25:12;;;;;;;35.67;15.53;;;16.00;99.90;;;;;;5034143;28;20237;-57
2023/07/25 03:27:37;;;;;;;25.33;13.80;;;16.00;99.90;;;;;;5036638;28;20263;-57
2023/07/25 03:30:04;;;;;;;34.97;15.00;;;16.00;99.90;;;;;;5029761;28;20184;-52
2023/07/25 03:32:29;;;;;;;42.10;16.73;;;16.00;99.90;;;;;;5019620;28;20213;-55
2023/07/25 03:34:55;;;;;;;31.60;11.67;;;16.00;99.90;;;;;;5029789;28;20483;-51
2023/07/25 03:37:21;;;;;;;16.60;8.70;;;16.00;99.90;;;;;;5031007;28;20206;-54
2023/07/25 03:39:46;;;;;;;21.70;9.70;;;16.00;99.90;;;;;;5027754;28;20207;-54
2023/07/25 03:42:12;;;;;;;17.50;8.57;;;15.90;99.90;;;;;;5028703;28;20186;-56
2023/07/25 03:44:37;;;;;;;21.97;9.70;;;15.90;99.90;;;;;;5022949;28;20196;-56
2023/07/25 03:47:03;;;;;;;18.77;9.80;;;15.90;99.90;;;;;;5017378;28;20664;-55
2023/07/25 03:49:29;;;;;;;16.60;9.10;;;15.90;99.90;;;;;;5028781;28;20203;-55
2023/07/25 03:51:54;;;;;;;21.50;9.20;;;15.90;99.90;;;;;;5029501;28;20180;-55
2023/07/25 03:54:23;;;;;;;17.57;10.00;;;15.90;99.90;;;;;;5040152;28;20226;-55
2023/07/25 03:56:52;;;;;;;19.80;9.43;;;15.90;99.90;;;;;;5035654;28;20408;-53
2023/07/25 03:59:18;;;;;;;27.70;11.23;;;15.90;99.90;;;;;;5032044;28;20474;-54
2023/07/25 04:01:44;;;;;;;25.73;12.27;;;15.90;99.90;;;;;;5042413;28;20447;-54
2023/07/25 04:04:10;;;;;;;24.63;12.10;;;15.90;99.90;;;;;;5040870;28;20871;-58
2023/07/25 04:06:37;;;;;;;27.77;13.73;;;15.90;99.90;;;;;;5029608;28;20766;-56
2023/07/25 04:09:02;;;;;;;31.83;14.93;;;15.90;99.90;;;;;;5027711;28;20250;-56
2023/07/25 04:11:28;;;;;;;23.70;14.23;;;15.90;99.90;;;;;;5026788;28;20438;-57
2023/07/25 04:13:54;;;;;;;25.57;12.03;;;15.90;99.90;;;;;;5040402;28;20286;-57
2023/07/25 04:16:19;;;;;;;29.10;13.30;;;15.90;99.90;;;;;;5031562;28;20196;-55
2023/07/25 04:18:45;;;;;;;25.77;12.33;;;15.90;99.90;;;;;;5029458;28;20207;-57
2023/07/25 04:21:10;;;;;;;19.20;11.57;;;15.90;99.90;;;;;;5038480;28;20175;-56
2023/07/25 04:23:36;;;;;;;19.40;10.50;;;16.00;99.90;;;;;;5039434;28;20175;-56
2023/07/25 04:26:02;;;;;;;16.33;9.53;;;16.00;99.90;;;;;;5044567;28;20261;-54
2023/07/25 04:28:28;;;;;;;12.07;8.23;;;16.00;99.90;;;;;;5034354;28;20537;-57
2023/07/25 04:30:53;;;;;;;11.00;7.40;;;16.00;99.90;;;;;;5033988;28;20213;-57
2023/07/25 04:33:19;;;;;;;12.17;7.70;;;16.00;99.90;;;;;;5038370;28;20732;-56
2023/07/25 04:35:45;;;;;;;14.80;7.33;;;16.00;99.90;;;;;;5038282;28;20211;-56
2023/07/25 04:38:12;;;;;;;13.07;8.00;;;16.00;99.90;;;;;;5035663;28;20207;-57
2023/07/25 04:40:38;;;;;;;12.07;6.93;;;16.00;99.90;;;;;;5032021;28;20183;-57
2023/07/25 04:43:03;;;;;;;10.23;7.20;;;16.00;99.90;;;;;;5042821;28;20430;-55
2023/07/25 04:45:29;;;;;;;7.93;6.50;;;16.00;99.90;;;;;;5036570;28;20259;-57
2023/07/25 04:47:54;;;;;;;8.00;6.17;;;16.00;99.90;;;;;;5042201;28;20533;-57
2023/07/25 04:50:20;;;;;;;6.80;5.40;;;16.00;99.90;;;;;;5031373;28;20633;-56
2023/07/25 04:52:46;;;;;;;9.87;6.20;;;15.90;99.90;;;;;;5034432;28;20167;-55
2023/07/25 04:55:11;;;;;;;9.90;6.10;;;15.90;99.90;;;;;;5043031;28;20205;-55
2023/07/25 04:57:37;;;;;;;6.63;5.50;;;15.90;99.90;;;;;;5031370;28;20186;-57
2023/07/25 05:00:04;;;;;;;7.17;4.80;;;15.90;99.90;;;;;;5039975;28;20172;-55
2023/07/25 05:02:30;;;;;;;7.17;5.50;;;15.90;99.90;;;;;;5040475;28;20167;-57
2023/07/25 05:04:55;;;;;;;7.93;5.10;;;15.90;99.90;;;;;;5042506;28;20489;-56
2023/07/25 05:07:21;;;;;;;7.87;5.13;;;15.90;99.90;;;;;;5044781;28;20172;-56
2023/07/25 05:09:46;;;;;;;9.30;5.30;;;15.90;99.90;;;;;;5040021;28;20818;-56
2023/07/25 05:12:13;;;;;;;7.10;4.60;;;15.90;99.90;;;;;;5037222;28;20183;-56
2023/07/25 05:14:39;;;;;;;8.13;5.20;;;15.90;99.90;;;;;;5030326;28;20805;-56
2023/07/25 05:17:05;;;;;;;7.30;5.20;;;15.90;99.90;;;;;;5040963;28;20431;-57
2023/07/25 05:19:31;;;;;;;9.47;5.67;;;16.00;99.90;;;;;;5040748;28;20446;-56
2023/07/25 05:21:56;;;;;;;10.40;5.60;;;16.00;99.90;;;;;;5045178;28;20811;-58
2023/07/25 05:24:23;;;;;;;8.90;5.03;;;16.00;99.90;;;;;;5035681;28;20186;-56
2023/07/25 05:26:49;;;;;;;6.10;4.07;;;16.10;99.90;;;;;;5033175;28;20190;-57
2023/07/25 05:29:15;;;;;;;7.50;5.00;;;16.10;99.90;;;;;;5027388;28;20457;-57
2023/07/25 05:31:40;;;;;;;9.40;5.27;;;16.10;99.90;;;;;;5033563;28;20571;-56
2023/07/25 05:34:06;;;;;;;11.80;5.30;;;16.20;99.90;;;;;;5026388;28;20229;-55
2023/07/25 05:36:31;;;;;;;7.57;4.90;;;16.20;99.90;;;;;;5026952;28;20805;-56
2023/07/25 05:38:57;;;;;;;7.57;4.97;;;16.30;99.90;;;;;;5035503;28;20211;-56
2023/07/25 05:41:23;;;;;;;7.67;5.47;;;16.30;99.90;;;;;;5036017;28;20175;-56
2023/07/25 05:43:48;;;;;;;7.93;5.40;;;16.40;99.90;;;;;;5044523;28;20269;-56
2023/07/25 05:46:14;;;;;;;6.40;5.10;;;16.50;99.90;;;;;;5036781;28;20608;-54
2023/07/25 05:48:40;;;;;;;6.37;4.67;;;16.50;99.90;;;;;;5026375;28;20195;-56
2023/07/25 05:51:05;;;;;;;6.13;4.73;;;16.60;99.90;;;;;;5016172;28;20568;-55
2023/07/25 05:53:31;;;;;;;5.70;4.70;;;16.60;99.90;;;;;;5025206;28;20209;-55
2023/07/25 05:55:57;;;;;;;9.77;5.80;;;16.60;99.90;;;;;;5016987;28;20476;-56
2023/07/25 05:58:23;;;;;;;6.50;5.33;;;16.60;99.90;;;;;;5034261;28;20445;-56
2023/07/25 06:00:49;;;;;;;8.63;5.20;;;16.50;99.90;;;;;;5032780;28;20256;-56
2023/07/25 06:03:15;;;;;;;5.57;4.50;;;16.50;99.90;;;;;;5034598;28;20191;-57
2023/07/25 06:05:41;;;;;;;7.43;4.50;;;16.50;99.90;;;;;;5033569;28;20442;-56
2023/07/25 06:08:07;;;;;;;7.37;4.97;;;16.50;99.90;;;;;;5039144;28;20452;-56
2023/07/25 06:10:34;;;;;;;7.30;3.83;;;16.60;99.90;;;;;;5037330;28;20238;-58
2023/07/25 06:13:00;;;;;;;5.83;4.33;;;16.60;99.90;;;;;;5039397;28;20481;-56
2023/07/25 06:15:28;;;;;;;8.10;4.00;;;16.60;99.90;;;;;;5032527;28;20931;-57
2023/07/25 06:17:54;;;;;;;8.10;4.87;;;16.70;99.90;;;;;;5031198;28;20222;-57
2023/07/25 06:20:19;;;;;;;5.33;3.87;;;16.80;99.90;;;;;;5040920;28;20437;-56
2023/07/25 06:22:45;;;;;;;4.70;3.73;;;16.80;99.90;;;;;;5035592;28;20809;-57
2023/07/25 06:25:14;;;;;;;7.77;4.63;;;16.80;99.90;;;;;;5039797;28;20691;-55
2023/07/25 06:27:40;;;;;;;6.87;4.40;;;16.80;99.90;;;;;;5034838;28;20178;-56
2023/07/25 06:30:06;;;;;;;6.67;4.90;;;16.90;99.90;;;;;;5037567;28;20425;-56
2023/07/25 06:32:32;;;;;;;4.43;3.97;;;16.90;99.90;;;;;;5033495;28;20432;-55
2023/07/25 06:34:58;;;;;;;7.03;4.40;;;16.80;99.90;;;;;;5038208;28;20548;-56
2023/07/25 06:37:23;;;;;;;4.63;4.13;;;16.80;99.90;;;;;;5043160;28;20551;-57
2023/07/25 06:39:49;;;;;;;7.80;4.77;;;16.80;99.90;;;;;;5035422;28;20208;-56
2023/07/25 06:42:14;;;;;;;6.53;3.80;;;16.80;99.90;;;;;;5044050;28;20224;-56
2023/07/25 06:44:40;;;;;;;4.97;4.47;;;16.80;99.90;;;;;;5039056;28;20201;-57
2023/07/25 06:47:06;;;;;;;7.67;4.37;;;16.80;99.90;;;;;;5039554;28;20320;-56
2023/07/25 06:49:31;;;;;;;5.20;3.87;;;16.80;99.90;;;;;;5045516;28;20230;-57
2023/07/25 06:51:57;;;;;;;5.10;4.30;;;16.80;99.90;;;;;;5042976;28;20183;-60
2023/07/25 06:54:22;;;;;;;7.00;4.00;;;16.80;99.90;;;;;;5039622;28;20198;-58
2023/07/25 06:56:48;;;;;;;6.43;4.37;;;16.80;99.90;;;;;;5037960;28;20179;-56
2023/07/25 06:59:14;;;;;;;6.17;3.97;;;16.80;99.90;;;;;;5045720;28;20218;-57
2023/07/25 07:01:40;;;;;;;6.87;3.90;;;16.80;99.90;;;;;;5043019;28;20175;-58
2023/07/25 07:04:05;;;;;;;7.20;4.23;;;16.90;99.90;;;;;;5042214;28;20190;-54
2023/07/25 07:06:31;;;;;;;4.50;3.40;;;16.90;99.90;;;;;;5043287;28;20182;-57
2023/07/25 07:08:57;;;;;;;7.67;4.23;;;16.90;99.90;;;;;;5037648;28;20241;-57
2023/07/25 07:11:22;;;;;;;6.90;4.53;;;17.00;99.90;;;;;;5044259;28;20414;-56
2023/07/25 07:13:48;;;;;;;6.57;3.70;;;17.00;99.90;;;;;;5037074;28;20743;-56
2023/07/25 07:16:14;;;;;;;5.20;3.67;;;17.00;99.90;;;;;;5036027;28;20808;-57
2023/07/25 07:18:40;;;;;;;4.97;3.80;;;17.10;99.90;;;;;;5039601;28;20229;-57
2023/07/25 07:21:05;;;;;;;6.60;3.60;;;17.20;99.90;;;;;;5034007;28;20266;-57
2023/07/25 07:23:31;;;;;;;5.37;3.07;;;17.20;99.90;;;;;;5033530;28;20261;-56
2023/07/25 07:25:56;;;;;;;9.80;3.90;;;17.30;99.90;;;;;;5039016;28;20190;-58
2023/07/25 07:28:22;;;;;;;3.90;3.20;;;17.40;99.90;;;;;;5042893;28;20351;-57
2023/07/25 07:30:51;;;;;;;7.50;3.63;;;17.40;99.90;;;;;;5040481;28;20211;-56
2023/07/25 07:33:20;;;;;;;3.40;2.90;;;17.60;99.90;;;;;;5043414;28;20278;-57
2023/07/25 07:35:45;;;;;;;6.17;3.43;;;17.80;99.90;;;;;;5047732;28;20922;-57
2023/07/25 07:38:12;;;;;;;5.30;3.63;;;18.00;99.90;;;;;;5035909;28;20528;-57
2023/07/25 07:40:38;;;;;;;8.90;2.80;;;18.10;99.90;;;;;;5029510;28;20692;-56
2023/07/25 07:43:03;;;;;;;5.20;2.57;;;18.20;99.90;;;;;;5044843;28;20430;-57
2023/07/25 07:45:30;;;;;;;4.33;3.17;;;18.30;99.90;;;;;;5039808;28;20179;-56
2023/07/25 07:47:56;;;;;;;4.50;2.83;;;18.40;99.90;;;;;;5039782;28;20249;-56
2023/07/25 07:50:22;;;;;;;2.90;2.60;;;18.50;99.90;;;;;;5041735;28;20429;-55
2023/07/25 07:52:48;;;;;;;4.87;2.90;;;18.50;99.90;;;;;;5034101;28;20179;-56
2023/07/25 07:55:15;;;;;;;3.80;2.53;;;18.60;99.90;;;;;;5037363;28;20230;-57
2023/07/25 07:57:45;;;;;;;5.30;2.97;;;18.50;99.90;;;;;;5033170;28;20422;-56
2023/07/25 08:00:13;;;;;;;5.33;2.63;;;18.30;99.90;;;;;;5041405;28;20418;-56
2023/07/25 08:02:43;;;;;;;3.07;2.10;;;18.30;99.90;;;;;;5033953;28;20454;-56
2023/07/25 08:05:09;;;;;;;2.97;2.13;;;18.30;99.90;;;;;;5034734;28;20434;-57
2023/07/25 08:07:35;;;;;;;5.10;2.40;;;18.40;99.90;;;;;;5041766;28;20426;-55
2023/07/25 08:10:00;;;;;;;3.23;2.30;;;18.40;99.90;;;;;;5027625;28;20703;-56
2023/07/25 08:12:26;;;;;;;2.33;2.13;;;18.50;99.90;;;;;;5037157;28;20564;-56
2023/07/25 08:14:52;;;;;;;3.80;2.77;;;18.60;99.90;;;;;;5043829;28;20309;-56
2023/07/25 08:17:18;;;;;;;3.60;2.47;;;18.70;99.90;;;;;;5036250;28;20262;-56
2023/07/25 08:19:44;;;;;;;3.83;2.30;;;18.80;99.90;;;;;;5023678;28;20261;-60
2023/07/25 08:22:10;;;;;;;5.47;2.73;;;18.70;99.90;;;;;;5036795;28;20302;-57
2023/07/25 08:24:36;;;;;;;2.50;2.30;;;18.50;99.90;;;;;;5025896;28;20682;-56
2023/07/25 08:27:02;;;;;;;3.30;2.30;;;18.40;99.90;;;;;;5025810;28;21119;-56
2023/07/25 08:29:28;;;;;;;2.93;2.30;;;18.40;99.90;;;;;;5039035;28;20456;-55
2023/07/25 08:31:54;;;;;;;4.73;2.20;;;18.40;99.90;;;;;;5036318;28;20860;-57
2023/07/25 08:34:20;;;;;;;3.10;2.30;;;18.40;99.90;;;;;;5042039;28;20198;-57
2023/07/25 08:36:46;;;;;;;2.20;2.00;;;18.40;99.90;;;;;;5036019;28;20259;-56
2023/07/25 08:39:12;;;;;;;3.73;1.97;;;18.40;99.90;;;;;;5041648;28;20207;-56
2023/07/25 08:41:50;;;;;;;5.00;2.50;;;18.30;99.90;;;;;;5044313;28;20433;-58
2023/07/25 08:44:19;;;;;;;1.90;1.77;;;18.30;99.90;;;;;;5041276;28;20187;-56
2023/07/25 08:46:45;;;;;;;2.93;1.90;;;18.30;99.90;;;;;;5035294;28;20433;-56
2023/07/25 08:49:15;;;;;;;4.40;2.03;;;18.40;99.90;;;;;;5036525;28;20468;-57
2023/07/25 08:51:43;;;;;;;6.50;2.07;;;18.40;99.90;;;;;;5035587;28;20441;-57
2023/07/25 08:54:18;;;;;;;6.23;1.67;;;18.50;99.90;;;;;;5035758;28;20466;-57
2023/07/25 08:56:45;;;;;;;4.80;2.17;;;18.70;99.60;;;;;;5040164;28;20486;-58
2023/07/25 08:59:12;;;;;;;3.37;1.80;;;18.80;95.70;;;;;;5033626;28;20516;-57
2023/07/25 09:01:38;;;;;;;4.50;2.50;;;19.10;92.20;;;;;;5034903;28;20904;-57
2023/07/25 09:04:04;;;;;;;3.53;2.17;;;19.30;94.10;;;;;;5033206;28;20437;-57
2023/07/25 09:06:33;;;;;;;4.70;2.50;;;19.40;92.70;;;;;;5032973;28;20262;-57
2023/07/25 09:08:59;;;;;;;8.03;2.20;;;19.60;88.80;;;;;;5034614;28;20904;-58
2023/07/25 09:11:26;;;;;;;2.87;2.03;;;19.60;71.50;;;;;;5035432;28;20847;-58
2023/07/25 09:13:51;;;;;;;5.53;2.17;;;19.50;71.40;;;;;;5038651;28;20460;-56
2023/07/25 09:16:17;;;;;;;3.63;1.73;;;19.40;71.60;;;;;;5037427;28;20800;-58
2023/07/25 09:18:42;;;;;;;14.43;2.67;;;19.30;74.60;;;;;;5028999;28;20211;-57
2023/07/25 09:21:08;;;;;;;5.40;2.23;;;19.20;75.10;;;;;;5036855;28;20168;-57
2023/07/25 09:23:34;;;;;;;4.70;2.50;;;19.20;71.10;;;;;;5034909;28;20762;-57
2023/07/25 09:26:09;;;;;;;4.80;1.67;;;19.20;71.10;;;;;;5035163;28;20229;-58
2023/07/25 09:28:35;;;;;;;2.80;1.73;;;19.20;70.80;;;;;;5037040;28;20205;-56
2023/07/25 09:31:05;;;;;;;4.37;2.07;;;19.20;75.10;;;;;;5035756;28;20422;-56
2023/07/25 09:33:31;;;;;;;4.80;3.10;;;19.30;76.70;;;;;;5035321;28;20191;-56
2023/07/25 09:35:57;;;;;;;3.73;2.27;;;19.40;79.80;;;;;;5039006;28;20465;-56
2023/07/25 09:38:23;;;;;;;4.33;2.00;;;19.60;80.80;;;;;;5039935;28;20298;-56
2023/07/25 09:40:49;;;;;;;4.30;1.80;;;19.80;86.00;;;;;;5030875;28;20557;-56
2023/07/25 09:43:21;;;;;;;7.30;2.30;;;20.00;80.10;;;;;;5034696;28;20668;-57
2023/07/25 09:45:46;;;;;;;5.67;2.00;;;20.20;70.50;;;;;;5031983;28;20655;-56
2023/07/25 09:48:15;;;;;;;3.57;2.00;;;20.40;70.20;;;;;;5038159;28;20460;-57
2023/07/25 09:50:43;;;;;;;4.63;1.93;;;20.60;70.20;;;;;;5043562;28;20170;-57
2023/07/25 09:53:10;;;;;;;2.47;1.83;;;20.70;66.70;;;;;;5048429;28;20433;-56
2023/07/25 09:55:36;;;;;;;5.37;1.80;;;20.80;71.10;;;;;;5044031;28;20448;-56
2023/07/25 09:58:02;;;;;;;3.80;2.40;;;20.90;64.80;;;;;;5032561;28;20450;-55
2023/07/25 10:00:29;;;;;;;4.47;1.87;;;20.80;66.70;;;;;;5036123;28;20221;-59
2023/07/25 10:02:56;;;;;;;2.80;2.13;;;20.60;69.30;;;;;;5036587;28;20434;-55
2023/07/25 10:05:22;;;;;;;3.20;2.10;;;20.60;73.40;;;;;;5035878;28;20510;-55
2023/07/25 10:07:49;;;;;;;6.83;2.10;;;20.60;80.30;;;;;;5029320;28;20430;-58
2023/07/25 10:10:17;;;;;;;5.93;1.90;;;20.60;67.10;;;;;;5034028;28;20179;-57
2023/07/25 10:12:43;;;;;;;3.47;1.73;;;20.60;67.00;;;;;;5034142;28;20438;-59
2023/07/25 10:15:10;;;;;;;2.53;1.63;;;20.50;68.90;;;;;;5029138;28;20454;-58
2023/07/25 10:17:35;;;;;;;4.40;1.73;;;20.50;63.20;;;;;;5039051;28;20182;-57
2023/07/25 10:20:05;;;;;;;2.87;1.67;;;20.40;61.70;;;;;;5031272;28;20507;-59
2023/07/25 10:22:33;;;;;;;4.00;1.80;;;20.20;61.10;;;;;;5031929;28;20183;-54
2023/07/25 10:24:58;;;;;;;2.10;1.90;;;20.10;63.50;;;;;;5028096;28;20473;-56
2023/07/25 10:27:24;;;;;;;5.20;1.43;;;20.10;66.50;;;;;;5029496;28;20447;-56
2023/07/25 10:29:50;;;;;;;4.13;2.17;;;20.30;63.80;;;;;;5030783;28;20718;-52
2023/07/25 10:32:19;;;;;;;4.63;1.63;;;20.60;66.20;;;;;;5029578;28;20179;-56
2023/07/25 10:35:02;;;;;;;1.70;1.60;;;20.70;61.80;;;;;;5031906;28;20458;-56
2023/07/25 10:37:40;;;;;;;3.80;1.90;;;20.70;60.30;;;;;;5032936;28;20430;-56
2023/07/25 10:40:17;;;;;;;3.90;1.70;;;20.60;62.30;;;;;;5032892;28;20476;-54
2023/07/25 10:42:49;;;;;;;3.00;1.47;;;20.60;64.80;;;;;;5026557;28;20461;-55
2023/07/25 10:45:21;;;;;;;1.93;1.30;;;20.60;67.40;;;;;;5031917;28;20510;-55
2023/07/25 10:47:48;;;;;;;2.53;1.50;;;20.70;65.10;;;;;;5030415;28;20460;-55
2023/07/25 10:50:17;;;;;;;2.90;1.43;;;20.80;66.40;;;;;;5040055;28;20914;-55
2023/07/25 10:52:44;;;;;;;4.43;1.50;;;20.90;62.10;;;;;;5037718;28;20468;-54
2023/07/25 10:55:14;;;;;;;3.27;1.30;;;21.00;59.10;;;;;;5038419;28;20600;-55
2023/07/25 10:57:40;;;;;;;3.10;1.60;;;21.00;61.50;;;;;;5031062;28;20437;-57
2023/07/25 11:00:10;;;;;;;1.80;1.37;;;21.00;56.70;;;;;;5007386;28;20429;-54
2023/07/25 11:02:35;;;;;;;2.50;1.80;;;21.00;54.90;;;;;;5036202;28;20683;-56
2023/07/25 11:05:13;;;;;;;3.57;1.50;;;21.20;56.70;;;;;;5032147;28;20469;-57
2023/07/25 11:07:45;;;;;;;1.53;1.20;;;21.50;58.50;;;;;;5039366;28;20350;-57
2023/07/25 11:10:10;;;;;;;1.50;1.40;;;21.60;56.10;;;;;;5034627;28;20442;-57
2023/07/25 11:12:37;;;;;;;3.83;1.50;;;21.50;54.10;;;;;;5038712;28;20476;-57
2023/07/25 11:15:03;;;;;;;1.20;1.10;;;21.40;54.80;;;;;;5036906;28;20211;-58
2023/07/25 11:17:29;;;;;;;3.73;1.40;;;21.40;55.10;;;;;;5033666;28;20452;-57
2023/07/25 11:20:30;;;;;;;1.93;1.50;;;21.30;54.00;;;;;;5034756;28;20477;-58
2023/07/25 11:22:55;;;;;;;2.90;1.27;;;21.30;55.40;;;;;;5035096;28;20195;-58
2023/07/25 11:25:22;;;;;;;0.90;0.90;;;21.50;55.40;;;;;;5038863;28;20443;-57
2023/07/25 11:27:48;;;;;;;1.27;1.00;;;21.70;55.00;;;;;;5039412;28;20194;-58
2023/07/25 11:30:19;;;;;;;2.10;1.50;;;21.80;55.50;;;;;;5029243;28;20441;-59
2023/07/25 11:32:54;;;;;;;5.40;1.13;;;21.90;55.00;;;;;;5031209;28;20186;-58
2023/07/25 11:35:21;;;;;;;3.37;1.40;;;21.90;54.20;;;;;;5028062;28;20466;-57
2023/07/25 11:37:49;;;;;;;0.90;0.90;;;21.80;53.20;;;;;;5015804;28;20487;-58
2023/07/25 11:40:15;;;;;;;1.37;1.27;;;21.90;54.70;;;;;;5035003;28;20508;-57
2023/07/25 11:42:46;;;;;;;3.33;1.37;;;22.00;55.20;;;;;;5039340;28;21059;-58
2023/07/25 11:45:13;;;;;;;1.70;1.10;;;22.10;53.60;;;;;;5034617;28;20201;-58
2023/07/25 11:47:40;;;;;;;1.47;1.10;;;21.80;52.70;;;;;;5032249;28;20960;-58
2023/07/25 11:50:08;;;;;;;1.17;0.80;;;21.70;54.80;;;;;;5028482;28;20956;-57
2023/07/25 11:52:34;;;;;;;1.20;1.07;;;21.60;54.20;;;;;;5041562;28;20529;-57
2023/07/25 11:55:01;;;;;;;1.33;1.17;;;21.50;53.60;;;;;;5035726;28;20794;-56
2023/07/25 11:57:27;;;;;;;2.90;1.60;;;21.40;54.40;;;;;;5034017;28;20465;-56
2023/07/25 11:59:54;;;;;;;1.83;1.30;;;21.30;54.80;;;;;;5028626;28;20526;-56
2023/07/25 12:02:20;;;;;;;2.03;1.17;;;21.10;54.30;;;;;;5036514;28;20237;-57
2023/07/25 12:04:46;;;;;;;1.50;1.37;;;21.00;54.70;;;;;;5030525;28;20433;-58
2023/07/25 12:07:14;;;;;;;1.57;1.10;;;20.80;54.00;;;;;;5038956;28;20176;-57
2023/07/25 12:09:51;;;;;;;1.33;0.97;;;20.80;54.20;;;;;;5033897;28;20199;-55
2023/07/25 12:12:17;;;;;;;1.30;1.20;;;20.90;54.60;;;;;;5027145;28;20604;-56
2023/07/25 12:14:54;;;;;;;2.23;1.20;;;21.10;52.80;;;;;;5029626;28;21396;-57
2023/07/25 12:17:19;;;;;;;2.20;1.43;;;21.50;50.40;;;;;;5034057;28;20448;-57
2023/07/25 12:19:56;;;;;;;3.57;1.57;;;21.80;50.00;;;;;;5030309;28;20908;-55
2023/07/25 12:22:21;;;;;;;1.77;1.40;;;22.10;48.90;;;;;;5031618;28;20184;-57
2023/07/25 12:24:47;;;;;;;2.70;1.50;;;22.40;49.00;;;;;;5035633;28;20441;-56
2023/07/25 12:27:17;;;;;;;2.40;1.27;;;22.60;48.90;;;;;;5038809;28;20266;-58
2023/07/25 12:29:42;;;;;;;1.40;1.30;;;22.70;48.90;;;;;;5036876;28;20234;-57
2023/07/25 12:32:08;;;;;;;3.77;1.50;;;22.80;49.10;;;;;;5025977;28;20437;-57
2023/07/25 12:34:34;;;;;;;1.33;1.10;;;22.80;49.30;;;;;;5028112;28;20260;-56
2023/07/25 12:37:02;;;;;;;3.10;1.43;;;22.80;50.10;;;;;;5030243;28;20183;-56
2023/07/25 12:39:29;;;;;;;1.40;1.30;;;22.50;49.00;;;;;;5033671;28;20620;-57